Time;durP1;ratioP1;P1;durP2;ratioP2;P2;SDS_P1;SDS_P2;PMS_P1;PMS_P2;Temp;Humidity;BMP_temperature;BMP_pressure;BME280_temperature;BME280_humidity;BME280_pressure;Samples;Min_cycle;Max_cycle;Signal;HPM_P1;HPM_P2
2023/06/04 00:02:25;;;;;;;1.63;0.93;;;17.80;36.20;;;;;;4980583;28;20423;-52
2023/06/04 00:04:53;;;;;;;1.02;0.60;;;17.70;36.10;;;;;;4976017;28;20411;-49
2023/06/04 00:07:20;;;;;;;2.67;1.00;;;17.70;36.10;;;;;;4977564;28;20754;-50
2023/06/04 00:09:48;;;;;;;2.45;0.77;;;17.70;36.10;;;;;;4978809;28;20069;-49
2023/06/04 00:12:15;;;;;;;1.48;0.80;;;17.60;36.20;;;;;;4982082;28;20055;-50
2023/06/04 00:14:43;;;;;;;1.45;0.88;;;17.60;36.20;;;;;;4980171;28;20486;-48
2023/06/04 00:17:12;;;;;;;1.13;0.70;;;17.60;36.20;;;;;;4980654;28;20171;-50
2023/06/04 00:19:40;;;;;;;1.55;1.00;;;17.60;36.30;;;;;;4976419;28;20478;-53
2023/06/04 00:22:07;;;;;;;1.23;0.90;;;17.50;36.20;;;;;;4978591;28;20054;-50
2023/06/04 00:24:35;;;;;;;0.60;0.47;;;17.50;36.30;;;;;;4979827;28;20088;-53
2023/06/04 00:27:02;;;;;;;2.78;0.70;;;17.50;36.40;;;;;;4979099;28;20058;-51
2023/06/04 00:29:30;;;;;;;4.13;0.90;;;17.40;36.40;;;;;;4979520;28;20410;-51
2023/06/04 00:31:57;;;;;;;1.58;0.95;;;17.40;36.50;;;;;;4980358;28;20050;-52
2023/06/04 00:34:25;;;;;;;1.08;0.80;;;17.40;36.50;;;;;;4980895;28;20491;-50
2023/06/04 00:36:53;;;;;;;2.35;1.25;;;17.40;36.60;;;;;;4974558;28;20058;-51
2023/06/04 00:39:20;;;;;;;0.90;0.63;;;17.30;36.70;;;;;;4980794;28;20061;-53
2023/06/04 00:41:47;;;;;;;2.00;0.80;;;17.30;36.80;;;;;;4980055;28;20422;-49
2023/06/04 00:44:15;;;;;;;1.40;0.75;;;17.30;37.00;;;;;;4977971;28;20066;-49
2023/06/04 00:46:45;;;;;;;0.73;0.60;;;17.30;37.10;;;;;;4977621;28;20050;-49
2023/06/04 00:49:13;;;;;;;4.70;0.90;;;17.20;37.00;;;;;;4977523;28;20054;-50
2023/06/04 00:51:41;;;;;;;1.40;0.93;;;17.20;37.30;;;;;;4977475;28;20061;-51
2023/06/04 00:54:09;;;;;;;2.47;0.77;;;17.20;37.20;;;;;;4978620;28;20050;-48
2023/06/04 00:59:59;;;;;;;1.45;0.80;;;17.10;37.30;;;;;;4979978;28;20387;-48
2023/06/04 01:02:27;;;;;;;1.98;0.98;;;17.10;37.10;;;;;;4976041;28;20047;-46
2023/06/04 01:05:03;;;;;;;4.38;1.30;;;17.10;37.30;;;;;;5031442;23;20053;-43
2023/06/04 01:07:32;;;;;;;4.50;0.80;;;17.10;37.30;;;;;;5018244;28;20057;-41
2023/06/04 01:09:59;;;;;;;1.42;0.90;;;17.10;37.40;;;;;;5017596;28;20497;-40
2023/06/04 01:12:28;;;;;;;1.42;0.80;;;17.10;37.50;;;;;;5018367;28;20051;-41
2023/06/04 01:14:55;;;;;;;1.80;0.82;;;17.00;37.50;;;;;;5019417;28;20049;-44
2023/06/04 01:17:28;;;;;;;1.77;0.88;;;17.00;37.50;;;;;;5017971;28;20057;-43
2023/06/04 01:20:14;;;;;;;1.48;1.00;;;17.00;37.60;;;;;;5018822;28;20045;-40
2023/06/04 01:22:49;;;;;;;2.38;0.98;;;17.00;37.50;;;;;;5014443;28;20061;-42
2023/06/04 01:25:23;;;;;;;1.23;0.90;;;17.00;37.50;;;;;;5019731;28;20053;-42
2023/06/04 01:27:55;;;;;;;1.40;0.73;;;16.90;37.50;;;;;;5019392;28;20052;-43
2023/06/04 01:30:25;;;;;;;1.38;0.60;;;16.90;37.50;;;;;;5015640;28;20061;-38
2023/06/04 01:32:53;;;;;;;2.30;0.80;;;16.90;37.50;;;;;;5016970;28;20050;-41
2023/06/04 01:35:21;;;;;;;1.00;0.82;;;16.80;37.50;;;;;;5017196;28;20054;-38
2023/06/04 01:37:51;;;;;;;0.93;0.77;;;16.80;37.60;;;;;;5013127;28;20064;-37
2023/06/04 01:40:18;;;;;;;1.23;0.70;;;16.80;37.70;;;;;;5017538;28;20052;-43
2023/06/04 01:42:45;;;;;;;1.85;0.93;;;16.80;37.70;;;;;;5019981;28;20053;-43
2023/06/04 01:45:13;;;;;;;1.65;0.80;;;16.80;37.80;;;;;;5019436;28;20417;-39
2023/06/04 01:47:40;;;;;;;2.05;0.98;;;16.70;38.40;;;;;;5016336;28;20054;-38
2023/06/04 01:50:09;;;;;;;1.98;0.85;;;16.70;38.00;;;;;;5012885;28;20053;-40
2023/06/04 01:52:36;;;;;;;1.15;0.73;;;16.70;38.00;;;;;;5016014;28;21565;-39
2023/06/04 01:55:07;;;;;;;2.28;1.02;;;16.70;38.00;;;;;;5018244;28;20054;-39
2023/06/04 01:57:35;;;;;;;1.33;1.05;;;16.70;38.10;;;;;;5017954;28;20057;-39
2023/06/04 02:00:03;;;;;;;2.13;1.00;;;16.60;37.90;;;;;;5014063;28;20060;-39
2023/06/04 02:02:30;;;;;;;1.60;0.90;;;16.60;38.00;;;;;;5017323;28;21951;-38
2023/06/04 02:04:58;;;;;;;1.88;0.90;;;16.60;38.10;;;;;;5016162;28;20064;-38
2023/06/04 02:07:25;;;;;;;7.00;1.00;;;16.60;38.10;;;;;;5014951;28;20516;-38
2023/06/04 02:09:53;;;;;;;2.75;0.95;;;16.50;38.20;;;;;;5013714;28;20386;-42
2023/06/04 02:19:06;;;;;;;3.75;1.13;;;16.50;38.60;;;;;;5009741;28;20056;-41
2023/06/04 02:21:33;;;;;;;2.03;1.02;;;16.40;39.10;;;;;;5016999;28;20076;-38
2023/06/04 02:24:00;;;;;;;1.40;0.80;;;16.40;38.60;;;;;;5016356;28;20416;-41
2023/06/04 02:26:27;;;;;;;1.63;0.90;;;16.30;38.50;;;;;;5018153;28;20493;-37
2023/06/04 02:28:54;;;;;;;1.95;1.00;;;16.30;38.50;;;;;;5009496;28;20053;-40
2023/06/04 02:31:22;;;;;;;3.03;1.00;;;16.30;38.70;;;;;;5011482;28;20060;-39
2023/06/04 02:33:49;;;;;;;2.30;1.13;;;16.20;38.60;;;;;;5018803;28;20053;-38
2023/06/04 02:36:18;;;;;;;6.85;1.40;;;16.20;38.70;;;;;;5016699;28;20413;-39
2023/06/04 02:38:45;;;;;;;2.80;1.15;;;16.20;39.00;;;;;;5010408;28;20053;-40
2023/06/04 02:41:12;;;;;;;1.05;0.80;;;16.20;39.10;;;;;;5015672;28;20049;-42
2023/06/04 02:43:39;;;;;;;2.60;0.90;;;16.10;38.90;;;;;;5019638;28;20057;-41
2023/06/04 02:46:07;;;;;;;7.53;1.10;;;16.10;39.00;;;;;;5018463;28;20057;-41
2023/06/04 02:48:34;;;;;;;2.75;0.93;;;16.00;39.00;;;;;;5016810;28;20049;-38
2023/06/04 02:51:01;;;;;;;2.33;1.10;;;16.10;39.20;;;;;;5020640;28;20058;-43
2023/06/04 02:53:29;;;;;;;3.47;1.10;;;16.00;39.00;;;;;;5015984;28;20050;-39
2023/06/04 02:55:57;;;;;;;3.08;1.20;;;16.00;39.00;;;;;;5019432;28;20057;-39
2023/06/04 02:58:26;;;;;;;1.48;1.00;;;15.90;39.00;;;;;;5016157;28;20488;-44
2023/06/04 03:00:53;;;;;;;3.00;1.20;;;15.90;39.10;;;;;;5017902;28;20054;-42
2023/06/04 03:03:20;;;;;;;1.63;0.93;;;15.90;39.10;;;;;;5015126;28;20053;-37
2023/06/04 03:05:48;;;;;;;2.20;0.90;;;15.90;39.10;;;;;;5016924;28;20500;-38
2023/06/04 03:08:15;;;;;;;1.88;1.10;;;15.80;39.10;;;;;;5006495;28;20057;-39
2023/06/04 03:10:44;;;;;;;2.15;1.00;;;15.80;39.10;;;;;;5011783;28;20061;-40
2023/06/04 03:13:11;;;;;;;2.38;1.10;;;15.80;39.10;;;;;;5012903;28;20061;-41
2023/06/04 03:15:38;;;;;;;2.13;1.08;;;15.80;39.20;;;;;;5014243;28;20058;-40
2023/06/04 03:18:06;;;;;;;1.98;0.85;;;15.80;39.20;;;;;;5012884;28;20057;-44
2023/06/04 03:20:37;;;;;;;2.10;0.70;;;15.70;39.20;;;;;;5014149;28;20511;-49
2023/06/04 03:23:05;;;;;;;2.63;1.23;;;15.70;39.20;;;;;;5013001;28;20049;-46
2023/06/04 03:25:32;;;;;;;1.42;1.05;;;15.60;39.20;;;;;;5017594;28;20049;-47
2023/06/04 03:28:01;;;;;;;1.00;0.70;;;15.60;39.30;;;;;;5013330;28;20053;-47
2023/06/04 03:30:28;;;;;;;2.85;1.10;;;15.60;39.30;;;;;;5015540;28;20394;-48
2023/06/04 03:32:55;;;;;;;2.75;1.00;;;15.50;39.80;;;;;;5017376;28;20053;-50
2023/06/04 03:35:22;;;;;;;1.33;0.80;;;15.50;39.50;;;;;;5017762;28;20065;-49
2023/06/04 03:37:50;;;;;;;1.63;1.15;;;15.50;39.60;;;;;;5012772;28;20053;-52
2023/06/04 03:40:17;;;;;;;3.75;1.10;;;15.50;39.80;;;;;;5019235;28;20057;-45
2023/06/04 03:42:44;;;;;;;3.03;0.80;;;15.50;39.90;;;;;;5017197;28;20053;-46
2023/06/04 03:45:13;;;;;;;2.35;1.05;;;15.40;40.10;;;;;;5017247;28;20072;-46
2023/06/04 03:47:40;;;;;;;3.00;1.17;;;15.40;40.20;;;;;;5011882;28;20053;-48
2023/06/04 03:50:08;;;;;;;3.90;1.10;;;15.40;40.10;;;;;;5019520;28;20050;-47
2023/06/04 03:52:36;;;;;;;1.20;0.88;;;15.40;40.40;;;;;;5016502;28;20041;-47
2023/06/04 03:55:03;;;;;;;4.25;1.05;;;15.30;40.40;;;;;;5013403;28;20057;-48
2023/06/04 03:57:31;;;;;;;2.22;1.10;;;15.30;40.50;;;;;;5019520;28;20068;-47
2023/06/04 03:59:58;;;;;;;3.40;1.05;;;15.20;40.30;;;;;;5014157;28;20050;-47
2023/06/04 04:02:26;;;;;;;2.42;1.10;;;15.20;40.30;;;;;;4999831;28;20053;-47
2023/06/04 04:04:56;;;;;;;1.65;1.05;;;15.20;40.50;;;;;;5010619;28;20064;-51
2023/06/04 04:07:24;;;;;;;5.07;1.35;;;15.10;40.60;;;;;;5015550;28;20058;-44
2023/06/04 04:09:52;;;;;;;3.92;2.10;;;15.10;40.90;;;;;;5017131;28;20054;-44
2023/06/04 04:12:19;;;;;;;4.03;2.00;;;15.00;41.10;;;;;;5016565;28;20068;-48
2023/06/04 04:14:47;;;;;;;8.82;1.75;;;15.00;41.40;;;;;;5016720;28;20060;-48
2023/06/04 04:17:14;;;;;;;3.38;1.65;;;15.00;41.50;;;;;;5011896;28;20776;-45
2023/06/04 04:19:43;;;;;;;3.00;1.17;;;15.00;41.60;;;;;;5015718;28;20513;-45
2023/06/04 04:22:12;;;;;;;2.40;0.80;;;15.00;41.70;;;;;;5021129;28;20420;-45
2023/06/04 04:24:39;;;;;;;2.90;1.17;;;15.00;41.90;;;;;;5014702;28;20064;-44
2023/06/04 04:27:10;;;;;;;2.63;0.85;;;15.00;42.00;;;;;;5014300;28;20608;-43
2023/06/04 04:29:43;;;;;;;1.42;0.95;;;15.00;41.90;;;;;;5013144;28;20049;-40
2023/06/04 04:32:11;;;;;;;1.42;1.00;;;15.00;41.90;;;;;;5013745;28;20061;-40
2023/06/04 04:34:39;;;;;;;1.45;1.05;;;15.00;42.10;;;;;;5015730;28;21285;-41
2023/06/04 04:37:09;;;;;;;3.83;1.08;;;15.00;42.30;;;;;;5013499;28;20057;-43
2023/06/04 04:39:37;;;;;;;4.15;1.60;;;15.00;42.60;;;;;;5019599;28;20084;-39
2023/06/04 04:42:04;;;;;;;8.23;3.38;;;15.10;42.80;;;;;;5015502;28;20057;-42
2023/06/04 04:44:32;;;;;;;2.72;1.30;;;15.00;42.60;;;;;;5012478;28;20052;-42
2023/06/04 04:46:59;;;;;;;2.25;1.33;;;15.00;42.60;;;;;;5030891;28;20421;-38
2023/06/04 04:49:26;;;;;;;5.15;1.20;;;15.10;42.70;;;;;;5032792;28;20049;-38
2023/06/04 04:51:53;;;;;;;2.00;1.33;;;15.00;43.10;;;;;;5038184;28;20052;-38
2023/06/04 04:54:22;;;;;;;1.88;1.00;;;15.00;43.40;;;;;;5037946;28;20053;-39
2023/06/04 04:56:49;;;;;;;1.42;0.93;;;14.90;43.30;;;;;;5037340;28;20060;-38
2023/06/04 04:59:17;;;;;;;1.98;1.38;;;14.90;43.10;;;;;;5035637;28;20065;-39
2023/06/04 05:01:44;;;;;;;3.83;1.77;;;14.90;43.80;;;;;;5034424;28;20539;-38
2023/06/04 05:04:11;;;;;;;2.30;1.45;;;14.90;44.10;;;;;;5039610;28;20061;-41
2023/06/04 05:06:38;;;;;;;13.88;1.73;;;14.90;44.60;;;;;;5028799;28;20495;-42
2023/06/04 05:09:07;;;;;;;3.65;1.40;;;14.90;44.70;;;;;;5030596;28;20503;-37
2023/06/04 05:11:35;;;;;;;2.03;1.20;;;14.90;45.00;;;;;;5038125;28;20492;-40
2023/06/04 05:14:03;;;;;;;2.40;1.40;;;14.80;45.20;;;;;;5037511;28;20382;-43
2023/06/04 05:16:30;;;;;;;2.05;1.20;;;14.90;45.70;;;;;;5034843;28;20064;-45
2023/06/04 05:18:57;;;;;;;2.42;1.20;;;14.80;46.20;;;;;;5035520;28;20057;-43
2023/06/04 05:21:25;;;;;;;2.50;1.23;;;14.80;46.50;;;;;;5034657;28;20064;-40
2023/06/04 05:23:52;;;;;;;3.03;1.23;;;14.80;46.50;;;;;;5036437;28;20377;-40
2023/06/04 05:26:22;;;;;;;5.30;1.25;;;14.80;46.30;;;;;;5036458;28;20060;-40
2023/06/04 05:28:51;;;;;;;2.60;1.50;;;14.80;45.70;;;;;;5035116;28;20054;-41
2023/06/04 05:31:18;;;;;;;2.17;1.17;;;14.80;44.90;;;;;;5034586;28;20073;-38
2023/06/04 05:33:47;;;;;;;6.10;1.17;;;14.70;44.80;;;;;;5035032;28;20049;-38
2023/06/04 05:36:14;;;;;;;2.53;1.33;;;14.80;44.70;;;;;;5036480;28;20056;-44
2023/06/04 05:38:42;;;;;;;3.17;1.25;;;14.80;45.10;;;;;;5036584;28;20493;-40
2023/06/04 05:41:09;;;;;;;6.22;1.25;;;14.80;44.90;;;;;;5036672;28;20064;-41
2023/06/04 05:43:36;;;;;;;3.53;1.20;;;14.80;44.90;;;;;;5034257;28;20068;-43
2023/06/04 05:46:06;;;;;;;2.30;1.20;;;14.90;44.80;;;;;;5037929;28;20049;-39
2023/06/04 05:48:33;;;;;;;2.72;1.58;;;14.90;44.80;;;;;;5037144;28;20067;-43
2023/06/04 05:51:00;;;;;;;2.35;1.33;;;14.90;44.90;;;;;;5036651;28;20044;-41
2023/06/04 05:53:27;;;;;;;6.95;1.27;;;15.00;45.20;;;;;;5031935;28;20397;-40
2023/06/04 05:55:55;;;;;;;4.65;1.52;;;15.00;45.30;;;;;;5033260;28;20053;-42
2023/06/04 05:58:22;;;;;;;7.45;1.50;;;15.10;45.40;;;;;;5035636;28;20052;-42
2023/06/04 06:00:50;;;;;;;2.33;1.50;;;15.10;45.30;;;;;;5034456;28;20057;-39
2023/06/04 06:03:19;;;;;;;2.08;1.50;;;15.20;45.20;;;;;;5031769;28;20570;-41
2023/06/04 06:05:46;;;;;;;7.25;1.60;;;15.20;45.30;;;;;;5032367;28;20053;-38
2023/06/04 06:08:15;;;;;;;1.55;1.27;;;15.30;45.20;;;;;;5033266;28;20520;-39
2023/06/04 06:10:42;;;;;;;2.28;1.35;;;15.30;45.30;;;;;;5035613;28;20079;-39
2023/06/04 06:13:09;;;;;;;4.10;1.50;;;15.40;45.30;;;;;;5035962;28;20053;-39
2023/06/04 06:15:37;;;;;;;3.22;1.52;;;15.50;45.40;;;;;;5036794;28;20049;-42
2023/06/04 06:18:04;;;;;;;3.80;1.52;;;15.60;45.60;;;;;;5031172;28;20052;-44
2023/06/04 06:20:33;;;;;;;3.63;1.23;;;15.60;45.60;;;;;;5039379;28;20057;-40
2023/06/04 06:23:07;;;;;;;4.10;1.30;;;15.70;45.60;;;;;;5037300;28;20056;-37
2023/06/04 06:25:34;;;;;;;;;;;15.80;46.10;;;;;;5037196;28;20056;-46
2023/06/04 06:28:01;;;;;;;7.82;2.17;;;15.90;45.70;;;;;;5040866;28;19920;-45
2023/06/04 06:30:28;;;;;;;2.40;1.50;;;16.00;45.50;;;;;;5033267;28;20473;-42
2023/06/04 06:32:56;;;;;;;3.15;1.60;;;16.00;45.40;;;;;;5039436;28;20056;-42
2023/06/04 06:35:23;;;;;;;2.80;1.52;;;16.10;45.20;;;;;;5034948;28;20049;-43
2023/06/04 06:37:51;;;;;;;4.28;1.90;;;16.20;45.00;;;;;;5032489;28;20061;-44
2023/06/04 06:40:20;;;;;;;2.47;1.70;;;16.20;44.70;;;;;;5038746;28;20415;-39
2023/06/04 06:42:50;;;;;;;3.13;1.77;;;16.30;44.90;;;;;;5039389;28;20052;-41
2023/06/04 06:45:19;;;;;;;2.55;1.48;;;16.40;44.60;;;;;;5036994;28;20503;-42
2023/06/04 06:47:46;;;;;;;3.03;1.67;;;16.50;44.20;;;;;;5034179;28;20045;-49
2023/06/04 06:50:13;;;;;;;2.70;1.42;;;16.60;44.20;;;;;;5038323;28;20408;-42
2023/06/04 06:52:40;;;;;;;2.55;1.63;;;16.60;44.70;;;;;;5034564;28;20060;-41
2023/06/04 06:55:09;;;;;;;2.95;1.70;;;16.80;44.20;;;;;;5036628;28;20445;-42
2023/06/04 06:57:37;;;;;;;9.82;1.70;;;16.80;44.10;;;;;;5038015;28;20056;-46
2023/06/04 07:00:05;;;;;;;3.55;1.50;;;17.00;44.20;;;;;;5039963;28;20061;-40
2023/06/04 07:02:33;;;;;;;4.63;2.55;;;17.00;44.30;;;;;;5034473;28;20053;-43
2023/06/04 07:05:00;;;;;;;3.08;1.52;;;17.10;43.80;;;;;;5035032;28;20500;-39
2023/06/04 07:07:27;;;;;;;2.83;1.30;;;17.30;43.70;;;;;;5032587;28;20509;-40
2023/06/04 07:09:54;;;;;;;3.47;1.50;;;17.40;43.90;;;;;;5040823;28;20063;-38
2023/06/04 07:12:23;;;;;;;3.22;1.25;;;17.50;43.80;;;;;;5035527;28;20053;-38
2023/06/04 07:14:50;;;;;;;3.75;1.50;;;17.60;43.70;;;;;;5037151;28;20056;-41
2023/06/04 07:17:18;;;;;;;3.20;1.45;;;17.70;43.20;;;;;;5036800;28;20063;-41
2023/06/04 07:19:45;;;;;;;2.65;1.52;;;17.80;43.10;;;;;;5039290;28;20057;-41
2023/06/04 07:22:12;;;;;;;4.35;1.40;;;17.90;42.60;;;;;;5033162;28;20053;-37
2023/06/04 07:24:39;;;;;;;2.97;1.48;;;18.00;42.60;;;;;;5039947;28;20523;-38
2023/06/04 07:27:12;;;;;;;2.05;1.27;;;18.10;42.30;;;;;;5038708;28;20048;-37
2023/06/04 07:29:40;;;;;;;2.85;1.40;;;18.20;41.90;;;;;;5037180;28;20053;-39
2023/06/04 07:32:08;;;;;;;3.42;1.40;;;18.30;41.80;;;;;;5036466;28;20064;-38
2023/06/04 07:34:36;;;;;;;2.25;1.30;;;18.40;41.50;;;;;;5040323;28;20408;-40
2023/06/04 07:37:04;;;;;;;3.58;1.38;;;18.50;41.40;;;;;;5031254;28;20053;-37
2023/06/04 07:39:31;;;;;;;2.40;1.23;;;18.60;41.30;;;;;;5040400;28;20519;-36
2023/06/04 07:41:58;;;;;;;2.40;1.40;;;18.60;41.00;;;;;;5036592;28;20049;-37
2023/06/04 07:44:26;;;;;;;3.42;1.27;;;18.70;40.60;;;;;;5036153;28;21046;-37
2023/06/04 07:46:54;;;;;;;8.38;4.03;;;18.80;40.50;;;;;;5038480;28;20091;-38
2023/06/04 07:49:21;;;;;;;5.40;2.63;;;18.90;40.40;;;;;;5040892;28;20053;-38
2023/06/04 07:51:49;;;;;;;7.85;2.55;;;18.90;40.40;;;;;;5031843;28;20057;-40
2023/06/04 07:54:16;;;;;;;2.63;1.83;;;19.00;40.20;;;;;;5034991;28;20500;-38
2023/06/04 07:56:43;;;;;;;3.33;1.30;;;19.10;40.20;;;;;;5037665;28;20417;-37
2023/06/04 07:59:11;;;;;;;2.40;1.40;;;19.20;40.20;;;;;;5039143;28;20048;-36
2023/06/04 08:01:38;;;;;;;2.35;1.13;;;19.20;40.00;;;;;;5034949;28;20045;-37
2023/06/04 08:04:06;;;;;;;3.47;1.25;;;19.30;39.90;;;;;;5031015;28;20508;-36
2023/06/04 08:06:35;;;;;;;2.80;1.70;;;19.40;39.90;;;;;;5033605;28;20051;-39
2023/06/04 08:09:03;;;;;;;2.75;1.10;;;19.50;39.70;;;;;;5037006;28;20519;-37
2023/06/04 08:11:30;;;;;;;2.78;1.15;;;19.50;39.40;;;;;;5037526;28;20056;-38
2023/06/04 08:13:57;;;;;;;3.22;1.10;;;19.60;39.30;;;;;;5039904;28;20485;-37
2023/06/04 08:16:25;;;;;;;4.32;1.30;;;19.60;39.10;;;;;;5032227;28;20046;-38
2023/06/04 08:18:52;;;;;;;2.60;0.85;;;19.80;39.20;;;;;;5033611;28;20057;-37
2023/06/04 08:21:28;;;;;;;5.57;1.23;;;19.80;39.20;;;;;;5036460;28;20887;-37
2023/06/04 08:23:55;;;;;;;2.38;1.00;;;19.90;38.90;;;;;;5037228;28;20044;-39
2023/06/04 08:26:23;;;;;;;8.43;1.40;;;20.00;39.10;;;;;;5035193;28;21814;-41
2023/06/04 08:28:50;;;;;;;3.58;1.20;;;20.10;38.50;;;;;;5036153;28;20071;-36
2023/06/04 08:31:18;;;;;;;5.53;1.27;;;20.10;38.20;;;;;;5031061;28;20428;-38
2023/06/04 08:33:46;;;;;;;6.55;1.40;;;20.20;37.90;;;;;;5034129;28;20057;-41
2023/06/04 08:36:13;;;;;;;2.65;1.10;;;20.30;37.70;;;;;;5036901;28;20159;-37
2023/06/04 08:38:42;;;;;;;6.47;1.10;;;20.30;37.50;;;;;;5038427;28;20484;-37
2023/06/04 08:41:15;;;;;;;6.38;1.30;;;20.40;37.10;;;;;;5033841;28;20053;-41
2023/06/04 08:43:44;;;;;;;3.90;1.30;;;20.50;37.00;;;;;;5036745;28;20057;-41
2023/06/04 08:46:13;;;;;;;2.25;1.27;;;20.50;37.00;;;;;;5029527;28;20053;-38
2023/06/04 08:48:40;;;;;;;1.80;1.02;;;20.60;37.10;;;;;;5034530;28;20053;-38
2023/06/04 08:51:09;;;;;;;5.15;1.20;;;20.70;36.90;;;;;;5035167;28;20056;-37
2023/06/04 08:53:37;;;;;;;5.22;1.27;;;20.80;36.60;;;;;;5036606;28;20056;-37
2023/06/04 08:56:06;;;;;;;3.53;1.30;;;20.80;36.60;;;;;;5038971;28;20057;-40
2023/06/04 08:58:33;;;;;;;2.88;1.10;;;20.90;36.60;;;;;;5037632;28;20048;-36
2023/06/04 09:01:01;;;;;;;6.28;1.33;;;21.00;36.30;;;;;;5037041;28;20052;-40
2023/06/04 09:03:31;;;;;;;1.80;1.25;;;21.00;36.00;;;;;;5031684;28;20065;-40
2023/06/04 09:05:59;;;;;;;4.40;0.95;;;21.10;36.00;;;;;;5032998;28;20048;-36
2023/06/04 09:08:28;;;;;;;1.48;0.90;;;21.10;35.90;;;;;;5037169;28;20057;-40
2023/06/04 09:10:55;;;;;;;4.25;1.20;;;21.20;35.60;;;;;;5034622;28;20052;-40
2023/06/04 09:13:29;;;;;;;6.72;1.35;;;21.30;35.80;;;;;;5036001;28;20049;-38
2023/06/04 09:16:03;;;;;;;2.50;1.05;;;21.30;35.80;;;;;;5038428;28;20045;-38
2023/06/04 09:18:31;;;;;;;1.50;1.08;;;21.40;35.50;;;;;;5037163;28;20174;-39
2023/06/04 09:21:03;;;;;;;1.88;1.00;;;21.40;35.50;;;;;;5032849;28;20076;-37
2023/06/04 09:23:31;;;;;;;2.17;1.27;;;21.50;35.60;;;;;;5028015;28;20072;-38
2023/06/04 09:26:07;;;;;;;3.10;1.10;;;21.60;35.70;;;;;;5035712;28;20393;-37
2023/06/04 09:28:36;;;;;;;1.83;1.10;;;21.60;35.40;;;;;;5038776;28;20057;-38
2023/06/04 09:31:04;;;;;;;1.95;0.98;;;21.70;35.50;;;;;;5034020;28;20131;-40
2023/06/04 09:33:31;;;;;;;2.85;1.30;;;21.80;35.30;;;;;;5037110;28;20444;-39
2023/06/04 09:35:59;;;;;;;3.40;1.13;;;21.80;35.10;;;;;;5032783;28;20057;-39
2023/06/04 09:38:34;;;;;;;2.83;1.00;;;21.90;34.80;;;;;;5032352;28;20489;-40
2023/06/04 09:41:04;;;;;;;2.53;1.42;;;21.90;34.40;;;;;;5030737;28;20535;-38
2023/06/04 09:43:32;;;;;;;3.38;0.88;;;22.00;33.70;;;;;;5036625;28;20057;-46
2023/06/04 09:46:11;;;;;;;3.42;1.23;;;22.00;34.20;;;;;;5035376;28;20696;-37
2023/06/04 09:48:39;;;;;;;1.63;0.93;;;22.10;34.40;;;;;;5025344;28;20504;-38
2023/06/04 09:51:11;;;;;;;2.55;1.27;;;22.20;34.40;;;;;;5034413;28;20065;-37
2023/06/04 09:53:40;;;;;;;1.80;1.20;;;22.20;34.20;;;;;;5026854;28;20057;-37
2023/06/04 09:56:08;;;;;;;2.67;1.20;;;22.30;34.10;;;;;;5037200;28;20060;-40
2023/06/04 09:58:36;;;;;;;2.83;1.30;;;22.30;34.00;;;;;;5037834;28;20057;-38
2023/06/04 10:01:05;;;;;;;3.40;1.40;;;22.40;33.90;;;;;;5034717;28;20056;-39
2023/06/04 10:03:36;;;;;;;1.58;1.15;;;22.40;33.30;;;;;;5026808;28;20056;-40
2023/06/04 10:06:04;;;;;;;2.25;1.10;;;22.50;32.90;;;;;;5040723;28;20041;-42
2023/06/04 10:08:33;;;;;;;2.30;1.20;;;22.50;32.90;;;;;;5031107;28;21047;-37
2023/06/04 10:11:05;;;;;;;1.50;1.10;;;22.50;32.40;;;;;;5037663;28;20056;-38
2023/06/04 10:13:39;;;;;;;3.40;1.30;;;22.60;32.60;;;;;;5040361;28;20056;-38
2023/06/04 10:16:08;;;;;;;2.08;1.10;;;22.60;32.30;;;;;;5033415;28;20057;-38
2023/06/04 10:18:38;;;;;;;2.65;1.38;;;22.60;32.00;;;;;;5035256;28;20057;-38
2023/06/04 10:21:07;;;;;;;2.65;1.30;;;22.70;31.80;;;;;;5036702;28;20049;-38
2023/06/04 10:23:34;;;;;;;1.90;1.10;;;22.70;32.00;;;;;;5035367;28;20064;-41
2023/06/04 10:26:03;;;;;;;2.63;1.23;;;22.70;31.90;;;;;;5035786;28;20412;-38
2023/06/04 10:28:30;;;;;;;2.25;1.17;;;22.70;31.70;;;;;;5034680;28;20056;-42
2023/06/04 10:30:58;;;;;;;7.78;2.00;;;22.80;31.90;;;;;;5037265;28;20385;-43
2023/06/04 10:33:25;;;;;;;2.78;1.08;;;22.70;29.60;;;;;;5032259;28;20485;-40
2023/06/04 10:35:55;;;;;;;3.97;1.60;;;22.80;29.70;;;;;;5036933;28;20060;-39
2023/06/04 10:38:23;;;;;;;1.08;0.80;;;22.80;30.90;;;;;;5034545;28;20057;-39
2023/06/04 10:40:51;;;;;;;2.58;1.10;;;22.90;31.00;;;;;;5036317;28;20053;-39
2023/06/04 10:43:19;;;;;;;1.92;1.10;;;22.90;30.90;;;;;;5034455;28;20773;-37
2023/06/04 10:45:47;;;;;;;9.75;1.38;;;23.00;30.70;;;;;;5034049;28;20049;-40
2023/06/04 10:48:16;;;;;;;2.17;1.10;;;23.00;30.50;;;;;;5034856;28;20057;-39
2023/06/04 10:50:50;;;;;;;1.80;1.25;;;23.00;30.20;;;;;;5036346;28;20075;-38
2023/06/04 10:53:20;;;;;;;3.10;1.10;;;23.00;30.20;;;;;;5033053;28;20049;-38
2023/06/04 10:55:48;;;;;;;2.80;1.27;;;23.10;30.50;;;;;;5038739;28;20488;-42
2023/06/04 10:58:17;;;;;;;6.65;1.45;;;23.10;30.10;;;;;;5038211;28;20049;-42
2023/06/04 11:00:48;;;;;;;1.83;1.10;;;23.10;30.30;;;;;;5039733;28;20052;-39
2023/06/04 11:03:16;;;;;;;3.20;1.20;;;23.10;30.50;;;;;;5034434;28;20056;-38
2023/06/04 11:05:45;;;;;;;2.00;1.20;;;23.20;30.50;;;;;;5035811;28;20527;-40
2023/06/04 11:08:14;;;;;;;4.03;1.30;;;23.20;30.00;;;;;;5032994;28;20075;-45
2023/06/04 11:10:44;;;;;;;6.10;1.20;;;23.20;30.30;;;;;;5038328;28;20060;-38
2023/06/04 11:13:11;;;;;;;4.05;1.33;;;23.20;30.40;;;;;;5038030;28;20481;-37
2023/06/04 11:15:39;;;;;;;2.22;1.23;;;23.30;30.50;;;;;;5033133;28;20393;-38
2023/06/04 11:18:07;;;;;;;5.57;1.35;;;23.30;30.20;;;;;;5041643;28;20057;-38
2023/06/04 11:20:34;;;;;;;2.63;1.05;;;23.30;30.00;;;;;;5034210;28;20062;-42
2023/06/04 11:23:03;;;;;;;3.33;1.33;;;23.40;29.80;;;;;;5037512;28;20061;-42
2023/06/04 11:25:32;;;;;;;4.13;1.20;;;23.40;28.60;;;;;;5032948;28;20401;-45
2023/06/04 11:28:02;;;;;;;4.68;1.40;;;23.40;28.90;;;;;;5035543;28;20057;-38
2023/06/04 11:30:30;;;;;;;4.07;1.08;;;23.50;28.20;;;;;;5035302;28;20053;-37
2023/06/04 11:33:04;;;;;;;2.60;1.10;;;23.50;29.00;;;;;;5027951;28;21345;-41
2023/06/04 11:35:32;;;;;;;4.57;1.23;;;23.50;28.80;;;;;;5031703;28;20064;-40
2023/06/04 11:38:00;;;;;;;3.85;1.20;;;23.50;28.60;;;;;;5037778;28;20416;-39
2023/06/04 11:40:27;;;;;;;5.45;1.15;;;23.60;28.80;;;;;;5034216;28;20412;-43
2023/06/04 11:42:55;;;;;;;1.83;1.13;;;23.60;28.70;;;;;;5039372;28;20413;-38
2023/06/04 11:45:25;;;;;;;2.85;1.27;;;23.60;28.70;;;;;;5036710;28;20056;-38
2023/06/04 11:47:55;;;;;;;3.28;1.40;;;23.70;28.30;;;;;;5033476;28;20054;-38
2023/06/04 11:50:22;;;;;;;2.58;1.30;;;23.70;28.80;;;;;;5038729;28;20118;-40
2023/06/04 11:52:50;;;;;;;3.28;1.30;;;23.70;28.40;;;;;;5030060;28;20056;-40
2023/06/04 11:55:20;;;;;;;2.65;1.40;;;23.80;27.70;;;;;;5027631;28;20425;-45
2023/06/04 11:57:48;;;;;;;2.05;1.08;;;23.80;27.10;;;;;;5032860;28;20060;-42
2023/06/04 12:00:17;;;;;;;7.60;1.45;;;23.80;27.90;;;;;;5032750;28;20072;-39
2023/06/04 12:02:53;;;;;;;1.40;0.95;;;23.80;28.20;;;;;;5025708;28;20049;-38
2023/06/04 12:05:22;;;;;;;4.85;1.10;;;23.90;28.30;;;;;;5033311;28;20135;-41
2023/06/04 12:07:51;;;;;;;2.80;1.17;;;24.00;28.60;;;;;;5031368;28;20045;-41
2023/06/04 12:10:19;;;;;;;3.55;1.13;;;24.00;28.30;;;;;;5034680;28;20056;-40
2023/06/04 12:12:46;;;;;;;3.55;1.13;;;24.00;28.00;;;;;;5028685;28;20511;-43
2023/06/04 12:15:20;;;;;;;4.45;1.00;;;24.10;28.10;;;;;;5033155;28;21107;-40
2023/06/04 12:17:52;;;;;;;1.70;1.05;;;24.10;28.00;;;;;;5022400;28;20389;-38
2023/06/04 12:20:20;;;;;;;1.80;1.00;;;24.10;28.00;;;;;;5032709;28;20500;-40
2023/06/04 12:22:48;;;;;;;5.22;1.60;;;24.10;28.10;;;;;;5034514;28;20055;-42
2023/06/04 12:25:26;;;;;;;3.28;1.33;;;24.10;27.90;;;;;;5035659;28;20480;-39
2023/06/04 12:27:53;;;;;;;2.92;1.20;;;24.10;27.80;;;;;;5030483;28;20057;-40
2023/06/04 12:30:21;;;;;;;3.15;1.40;;;24.20;28.10;;;;;;5030170;28;20049;-39
2023/06/04 12:32:49;;;;;;;4.65;1.45;;;24.10;28.10;;;;;;5036543;28;20064;-42
2023/06/04 12:35:17;;;;;;;1.45;1.08;;;24.20;26.50;;;;;;5036247;28;20057;-40
2023/06/04 12:37:44;;;;;;;1.83;1.20;;;24.20;27.30;;;;;;5034119;28;20051;-37
2023/06/04 12:40:12;;;;;;;2.60;1.10;;;24.20;27.50;;;;;;5029754;28;20057;-47
2023/06/04 12:42:40;;;;;;;4.45;0.90;;;24.30;27.60;;;;;;5035350;28;20404;-47
2023/06/04 12:45:09;;;;;;;3.30;1.30;;;24.30;27.60;;;;;;5033385;28;20080;-47
2023/06/04 12:47:36;;;;;;;3.80;1.40;;;24.30;27.60;;;;;;5028905;28;20057;-44
2023/06/04 12:50:04;;;;;;;3.67;1.42;;;24.40;27.50;;;;;;5032174;28;20436;-47
2023/06/04 12:52:32;;;;;;;4.68;1.40;;;24.40;27.50;;;;;;5033344;28;20057;-44
2023/06/04 12:54:59;;;;;;;3.75;1.10;;;24.40;27.30;;;;;;5034506;28;20424;-47
2023/06/04 12:57:27;;;;;;;2.05;1.23;;;24.40;27.60;;;;;;5029817;28;20044;-44
2023/06/04 12:59:54;;;;;;;5.65;1.35;;;24.40;27.40;;;;;;5033804;28;20068;-43
2023/06/04 13:02:22;;;;;;;1.90;1.17;;;24.40;27.20;;;;;;5034196;28;20053;-45
2023/06/04 13:04:52;;;;;;;1.50;0.93;;;24.40;27.30;;;;;;5034240;28;20133;-43